Terminal Aerodrome Forecast
Issued by NWS Boston, MA

Current Version | Previous Version | Text Only | Print | Product List | Glossary On
Versions: 1 2 3 4 5 6 7 8 9 10 11 12 13 14 15 16 17 18 19 20 21 22 23 24 25 26 27 28 29 30 31 32 33 34 35 36 37 38 39 40 41 42 43 44
000 FTUS41 KBOX 221504 AAA TAFBDL TAF AMD KBDL 221504Z 2215/2318 17010KT P6SM OVC035 FM221700 17010KT P6SM OVC030 FM221900 16009KT P6SM VCSH OVC015 FM222100 16009KT 3SM -SHRA BR OVC008 FM230500 VRB03KT 3SM BR BKN008 FM230700 VRB03KT 6SM BR BKN035 FM231000 34005KT P6SM SCT200=

USA.gov is the U.S. government's official web portal to all federal, state and local government web resources and services.